カンクン の空港の天気 - METARとTAF

カンクン国際空港 ( MMUN / CUN ) - メキシコ キンタナ・ロー州カンクン
飛行場実況気象(Metar)
観測時間07/28 06:45 CDT (07/28 11:45 UTC)
風向・風速静穏 0m/s
視程10km以上
天気現象
少しの雲 雲底高度 460m
気温24℃
湿度100%
気圧1014.1hPa
METARMMUN 281145Z 00000KT 7SM FEW015 24/24 A2994 RMK SLP141 51005 963 8/100 CI
過去の天気等 Google飛行場航空写真 Wunderground天気予報

過去48時間のMETAR

飛行場予報(TAF)
発表時間: 7/28 05:28 CDT (7/28 10:28 UTC)
予報対象時間: 28日7時 CDT ~ 29日13時 CDT
風向・風速東 3m/s
視程10km以上
天気現象煙霧
全天の4割程度の雲 雲底高度 460m
全天の8割程度の雲 雲底高度 9,140m
28日13時 CDT から
風向・風速東 5m/s
視程10km以上
天気現象煙霧
全天の4割程度の雲 雲底高度 460m
全天の4割程度の雲 雲底高度 9,140m
28日16時 CDT ~ 28日20時 CDT に一時的に
視程8,050m
天気現象雷雨
全天の8割程度の積乱雲 雲底高度 460m
29日1時 CDT から
風向・風速東北東 3m/s
視程10km以上
天気現象煙霧
全天の4割程度の雲 雲底高度 460m
全天の8割程度の雲 雲底高度 9,140m
29日13時 CDT から
風向・風速東 5m/s
視程10km以上
全天の4割程度の雲 雲底高度 610m
TAF MMUN 281028Z 2812/2918 08005KT 6SM HZ SCT015 BKN300 TX33/2819Z TN25/2812Z
FM281800 08010KT 6SM HZ SCT015 SCT300
TEMPO 2821/2901 5SM TSRA BKN015CB
FM290600 06005KT 6SM HZ SCT015 BKN300
FM291800 08010KT P6SM SCT020